Flight Track Log - Related Links

Times and Time Zones

All times are in EDT time to prevent confusion due to time zone crossing. See the N69VT flight status page for this flight to view local times or setup timezone preferences in your user account.


Time Position Orientation Groundspeed Altitude Reporting Facility
EDT Latitude Longitude Course Direction KTS MPH feet Rate Location/Type
Sun 07:16:50 AM 36.8511 -76.2433 214° Southwest 226 260 2,700  Level Washington Center
Sun 07:17:52 AM 36.8069 -76.2975 224° Southwest 226 260 6,900 4,286 Climbing Washington Center
Sun 07:18:49 AM 36.8253 -76.3886 284° West 223 257 11,200 3,450 Climbing Washington Center
Sun 07:19:52 AM 36.8642 -76.4875 296° West 255 293 13,800 2,380 Climbing Washington Center
Sun 07:20:50 AM 36.8986 -76.5969 292° West 302 348 16,000 1,311 Climbing Washington Center
Sun 07:21:51 AM 36.9353 -76.7144 291° West 344 396 16,400 756 Climbing Washington Center
Sun 07:22:49 AM 36.9717 -76.8294 292° West 359 413 17,500 1,109 Climbing Washington Center
Sun 07:23:50 AM 37.0100 -76.9469 292° West 359 413 18,600 1,200 Climbing Washington Center
Sun 07:24:49 AM 37.0483 -77.0647 292° West 364 419 19,900 694 Climbing Washington Center
Sun 07:25:51 AM 37.0592 -77.1950 276° West 364 419 20,000 50 Climbing Washington Center
Sun 07:26:50 AM 37.0636 -77.3253 272° West 374 430 20,000  Level Washington Center
Sun 07:27:51 AM 37.0700 -77.4531 274° West 379 436 20,000  Level Washington Center
Sun 07:28:51 AM 37.0783 -77.5861 275° West 384 442 20,000  Level Washington Center
Sun 07:29:51 AM 37.0886 -77.7164 276° West 384 442 20,000  Level Washington Center
Sun 07:30:52 AM 37.0925 -77.8417 272° West 384 442 20,000  Level Washington Center
Sun 07:31:52 AM 37.1025 -77.9694 276° West 384 442 20,000  Level Washington Center
Sun 07:32:50 AM 37.1208 -78.0950 280° West 379 436 20,000  Level Washington Center
Sun 07:33:51 AM 37.1369 -78.2206 279° West 371 427 20,000  Level Washington Center
Sun 07:34:50 AM 37.1508 -78.3489 278° West 371 427 20,000  Level Washington Center
Sun 07:35:50 AM 37.1647 -78.4717 278° West 371 427 20,000  Level Washington Center
Sun 07:36:51 AM 37.1783 -78.5894 278° West 371 427 20,000  Level Washington Center
Sun 07:37:52 AM 37.1919 -78.7178 278° West 371 427 20,000  Level Washington Center
Sun 07:38:50 AM 37.2072 -78.8489 278° West 371 427 20,000 -600 Level Washington Center
Sun 07:39:52 AM 37.2203 -78.9747 277° West 371 427 18,800 -1,650 Descending Washington Center
Sun 07:40:50 AM 37.2353 -79.1108 278° West 371 427 16,700 -1,424 Descending Washington Center
Sun 07:41:50 AM 37.2464 -79.2264 277° West 365 420 16,000 -744 Descending Washington Center
Sun 07:42:51 AM 37.2594 -79.3417 278° West 349 402 15,200 -1,240 Descending Washington Center
Sun 07:43:51 AM 37.2686 -79.4492 276° West 337 388 13,500 -1,983 Descending Washington Center
Sun 07:44:52 AM 37.2694 -79.5483 271° West 309 356 11,200 -2,521 Descending Washington Center
Sun 07:45:50 AM 37.2667 -79.6317 268° West 281 323 8,500 -2,644 Descending Washington Center
Sun 07:46:50 AM 37.2658 -79.7206 269° West 270 311 6,000 -2,262 Descending Washington Center
Sun 07:47:52 AM 37.2669 -79.8042 271° West 259 298 3,900 -1,525 Descending Washington Center
Sun 07:48:52 AM 37.2708 -79.8747 274° West 232 267 2,900 -1,017 Descending Washington Center
Sun 07:49:50 AM 37.2772 -79.9300 278° West 175 201 1,900 -706 Descending Washington Center
Sun 07:50:51 AM 37.2969 -79.9622 308° West 137 158 1,500 -197 Descending Washington Center
Sun 07:51:52 AM 37.2992 -80.0122 273° West 137 158 1,500  Level Washington Center

Login

Don't have an account? Register now (free) for customized features, flight alerts, and more!